Time;durP1;ratioP1;P1;durP2;ratioP2;P2;SDS_P1;SDS_P2;PMS_P1;PMS_P2;Temp;Humidity;BMP_temperature;BMP_pressure;BME280_temperature;BME280_humidity;BME280_pressure;Samples;Min_cycle;Max_cycle;Signal;HPM_P1;HPM_P2
2022/04/19 00:00:43;;;;;;;;;44.00;39.00;;;;;8.02;45.44;99090.81;5074946;28;8842;-74
2022/04/19 00:03:14;;;;;;;;;41.25;38.25;;;;;8.06;45.39;99090.81;5048649;28;8850;-76
2022/04/19 00:05:43;;;;;;;;;35.50;34.25;;;;;8.11;45.72;99091.69;5049256;28;8862;-74
2022/04/19 00:08:14;;;;;;;;;30.50;28.50;;;;;8.14;45.88;99086.47;5067743;28;8866;-75
2022/04/19 00:10:44;;;;;;;;;40.00;39.00;;;;;8.18;44.97;99087.34;5070704;28;8973;-77
2022/04/19 00:13:15;;;;;;;;;40.75;36.75;;;;;8.20;45.08;99086.50;5054677;28;8877;-73
2022/04/19 00:15:44;;;;;;;;;33.67;31.67;;;;;8.23;45.38;99079.59;5070931;28;8869;-76
2022/04/19 00:18:13;;;;;;;;;43.75;39.00;;;;;8.24;45.56;99077.00;5053641;28;8866;-79
2022/04/19 00:20:43;;;;;;;;;39.75;34.75;;;;;8.29;45.31;99074.38;5026335;28;9572;-74
2022/04/19 00:23:13;;;;;;;;;37.00;35.25;;;;;8.32;45.74;99074.41;5054380;28;8834;-77
2022/04/19 00:25:45;;;;;;;;;41.75;38.25;;;;;8.36;45.68;99071.78;5070562;28;8854;-78
2022/04/19 00:28:15;;;;;;;;;44.75;39.00;;;;;8.42;44.73;99070.97;5087405;28;8880;-75
2022/04/19 00:30:47;;;;;;;;;36.25;33.75;;;;;8.44;45.01;99070.97;5062934;28;10031;-76
2022/04/19 00:33:17;;;;;;;;;44.25;39.25;;;;;8.46;45.68;99071.84;5083652;28;8841;-77
2022/04/19 00:35:46;;;;;;;;;47.25;42.00;;;;;8.49;45.19;99071.84;5073442;28;9627;-74
2022/04/19 00:38:14;;;;;;;;;44.00;38.25;;;;;8.51;44.76;99072.72;5035815;28;8980;-76
2022/04/19 00:40:45;;;;;;;;;51.75;43.25;;;;;8.52;44.91;99070.09;5086740;28;8846;-81
2022/04/19 00:43:13;;;;;;;;;47.25;41.25;;;;;8.51;45.00;99081.38;5104103;28;8846;-76
2022/04/19 00:45:42;;;;;;;;;51.25;43.25;;;;;8.50;45.26;99071.81;5083960;28;9757;-75
2022/04/19 00:48:11;;;;;;;;;46.50;41.25;;;;;8.49;45.04;99070.09;5066728;28;8865;-74
2022/04/19 00:50:41;;;;;;;;;44.50;41.50;;;;;8.47;45.59;99064.06;5050928;28;8878;-76
2022/04/19 00:53:12;;;;;;;;;48.00;41.50;;;;;8.44;45.42;99070.97;5057700;28;8861;-76
2022/04/19 00:55:45;;;;;;;;;52.00;42.75;;;;;8.39;45.67;99068.31;5050205;28;8841;-77
2022/04/19 00:58:16;;;;;;;;;44.25;41.75;;;;;8.35;45.63;99069.19;5049367;28;8927;-74
2022/04/19 01:00:50;;;;;;;;;41.25;39.50;;;;;8.27;45.17;99069.19;5083991;28;8938;-73
2022/04/19 01:03:21;;;;;;;;;47.00;41.75;;;;;8.23;45.22;99064.00;5066253;28;8921;-74
2022/04/19 01:05:55;;;;;;;;;51.75;41.50;;;;;8.20;45.45;99067.44;5066171;28;8849;-77
2022/04/19 01:08:27;;;;;;;;;42.00;39.00;;;;;8.13;45.51;99069.19;5066190;28;8889;-81
2022/04/19 01:13:56;;;;;;;;;34.75;34.50;;;;;8.04;46.01;99052.72;5015178;28;8967;-76
2022/04/19 01:16:27;;;;;;;;;45.75;40.00;;;;;8.03;45.53;99061.38;5015306;28;8834;-74
2022/04/19 01:18:57;;;;;;;;;40.75;38.25;;;;;7.99;46.11;99063.09;5064551;28;8968;-75
2022/04/19 01:21:43;;;;;;;;;41.00;37.75;;;;;7.95;45.91;99053.56;5030473;28;8865;-76
2022/04/19 01:24:15;;;;;;;;;53.25;43.25;;;;;7.94;46.05;99062.19;5048239;28;8947;-74
2022/04/19 01:26:45;;;;;;;;;46.50;41.50;;;;;7.90;46.01;99060.47;5037678;28;9096;-74
2022/04/19 01:29:15;;;;;;;;;43.00;39.50;;;;;7.85;46.18;99060.47;5034624;28;8868;-77
2022/04/19 01:31:46;;;;;;;;;41.25;39.00;;;;;7.64;46.30;99070.75;5051227;28;8832;-79
2022/04/19 01:34:17;;;;;;;;;43.75;41.00;;;;;7.61;46.30;99072.50;5034770;28;8835;-76
2022/04/19 01:36:46;;;;;;;;;49.50;39.25;;;;;7.65;46.50;99070.78;5011090;28;8876;-75
2022/04/19 01:39:17;;;;;;;;;41.00;38.50;;;;;7.65;46.27;99069.91;5011285;28;8880;-75
2022/04/19 01:41:48;;;;;;;;;46.75;41.75;;;;;7.62;46.11;99068.19;5020055;28;8996;-75
2022/04/19 01:44:17;;;;;;;;;38.25;36.00;;;;;7.63;46.47;99069.03;5050638;28;8848;-76
2022/04/19 01:46:47;;;;;;;;;50.00;41.25;;;;;7.61;46.60;99064.69;5034561;28;8844;-77
2022/04/19 01:49:16;;;;;;;;;34.50;33.25;;;;;7.64;46.39;99065.56;5034618;28;8855;-79
2022/04/19 01:51:44;;;;;;;;;44.25;40.50;;;;;7.54;46.61;99062.97;5050820;28;8868;-79
2022/04/19 01:54:15;;;;;;;;;43.00;37.25;;;;;7.52;46.73;99062.06;5016866;28;8906;-76
2022/04/19 01:56:44;;;;;;;;;41.50;37.00;;;;;7.51;46.42;99065.53;5010917;28;8964;-76
2022/04/19 01:59:19;;;;;;;;;44.25;39.00;;;;;7.51;46.12;99068.13;4996864;28;8879;-75
2022/04/19 02:02:06;;;;;;;;;42.25;34.75;;;;;7.49;46.59;99069.00;5011890;28;8864;-74
2022/04/19 02:04:34;;;;;;;;;40.75;35.00;;;;;7.46;46.86;99068.97;4995501;28;8844;-75
2022/04/19 02:07:05;;;;;;;;;40.00;34.00;;;;;7.44;46.33;99066.38;5027109;28;8895;-76
2022/04/19 02:09:35;;;;;;;;;40.50;38.25;;;;;7.45;46.26;99055.16;4990976;28;8868;-75
2022/04/19 02:12:07;;;;;;;;;43.25;36.25;;;;;7.45;46.76;99062.03;4956116;28;8898;-76
2022/04/19 02:14:53;;;;;;;;;43.50;40.00;;;;;7.42;46.57;99068.09;4989072;28;8916;-79
2022/04/19 02:17:23;;;;;;;;;43.50;40.00;;;;;7.41;46.46;99061.19;5031023;28;8834;-76
2022/04/19 02:19:59;;;;;;;;;44.75;40.25;;;;;7.41;46.49;99063.78;5030662;28;9659;-76
2022/04/19 02:22:29;;;;;;;;;44.50;39.25;;;;;7.39;46.89;99062.88;5014630;28;9066;-75
2022/04/19 02:25:00;;;;;;;;;46.00;40.50;;;;;7.36;46.97;99060.28;5047027;28;8960;-76
2022/04/19 02:27:31;;;;;;;;;39.75;37.00;;;;;7.35;47.00;99059.44;5010694;28;8945;-76
2022/04/19 02:30:04;;;;;;;;;42.50;39.75;;;;;7.33;47.39;99052.50;5019429;28;8849;-76
2022/04/19 02:32:35;;;;;;;;;45.50;41.00;;;;;7.30;47.21;99055.94;5050850;28;8826;-75
2022/04/19 02:35:05;;;;;;;;;45.25;39.75;;;;;7.28;47.33;99051.59;5068181;28;8854;-76
2022/04/19 02:37:33;;;;;;;;;48.50;43.00;;;;;7.25;47.45;99055.03;5070186;28;9576;-75
2022/04/19 02:40:05;;;;;;;;;51.50;44.75;;;;;7.23;47.58;99049.00;5084607;28;9604;-74
2022/04/19 02:42:33;;;;;;;;;45.75;42.00;;;;;7.11;47.99;99047.22;5084946;28;8854;-75
2022/04/19 02:45:03;;;;;;;;;41.75;38.75;;;;;6.99;48.37;99055.78;5068036;28;8862;-74
2022/04/19 02:47:33;;;;;;;;;49.75;42.50;;;;;6.88;48.56;99053.97;5068908;28;8844;-76
2022/04/19 02:50:02;;;;;;;;;41.25;38.25;;;;;6.79;48.44;99052.22;5031697;28;8861;-78
2022/04/19 02:52:31;;;;;;;;;48.25;43.50;;;;;6.71;48.93;99056.44;5031274;28;8898;-76
2022/04/19 02:55:00;;;;;;;;;48.75;42.25;;;;;6.70;48.73;99060.78;5047335;28;8949;-79
2022/04/19 02:57:30;;;;;;;;;32.75;31.25;;;;;6.62;49.11;99054.69;5031563;28;8841;-77
2022/04/19 02:59:58;;;;;;;;;45.25;39.50;;;;;6.61;49.02;99051.19;5080999;28;8909;-76
2022/04/19 03:02:28;;;;;;;;;50.25;42.00;;;;;6.58;49.07;99066.72;5047209;28;8853;-74
2022/04/19 03:04:57;;;;;;;;;46.75;42.75;;;;;6.46;49.56;99058.84;5080740;28;8979;-75
2022/04/19 03:07:26;;;;;;;;;45.25;40.50;;;;;6.35;50.07;99058.78;5047767;28;8860;-75
2022/04/19 03:09:54;;;;;;;;;50.50;43.75;;;;;6.31;50.09;99067.34;5064610;28;8880;-75
2022/04/19 03:12:23;;;;;;;;;46.50;42.50;;;;;6.27;50.29;99069.91;5051369;28;8866;-75
2022/04/19 03:15:11;;;;;;;;;49.25;43.50;;;;;6.27;50.34;99075.09;5084239;28;8834;-74
2022/04/19 03:17:41;;;;;;;;;50.50;44.00;;;;;6.22;50.69;99075.06;5084417;28;9000;-75
2022/04/19 03:20:12;;;;;;;;;46.75;43.25;;;;;6.30;50.16;99078.59;5057902;28;8836;-74
2022/04/19 03:28:23;;;;;;;;;47.33;40.33;;;;;6.42;50.05;99075.22;5046691;28;9044;-74
2022/04/19 03:30:54;;;;;;;;;52.00;43.25;;;;;6.44;50.17;99089.06;5063416;28;8934;-76
2022/04/19 03:33:24;;;;;;;;;53.50;43.75;;;;;6.49;50.03;99086.53;5046948;28;8837;-75
2022/04/19 03:35:56;;;;;;;;;54.50;43.25;;;;;6.46;50.19;99091.66;5047026;28;8857;-74
2022/04/19 03:38:24;;;;;;;;;47.25;42.50;;;;;6.48;49.98;99087.38;5060225;28;8915;-75
2022/04/19 03:40:53;;;;;;;;;45.75;41.50;;;;;6.43;49.87;99088.19;5066677;28;8850;-75
2022/04/19 03:43:23;;;;;;;;;50.25;43.25;;;;;6.41;50.13;99081.28;5068157;28;9608;-72
2022/04/19 03:45:54;;;;;;;;;63.25;50.00;;;;;6.40;50.22;99089.88;5087765;28;8842;-76
2022/04/19 03:48:22;;;;;;;;;84.25;67.75;;;;;6.43;50.12;99097.69;5071455;28;8872;-74
2022/04/19 03:50:51;;;;;;;;;57.75;48.50;;;;;6.46;49.98;99095.13;5068005;28;9719;-75
2022/04/19 03:53:20;;;;;;;;;23.75;19.75;;;;;6.47;50.13;99094.28;5070741;28;9044;-74
2022/04/19 03:55:48;;;;;;;;;52.75;47.00;;;;;6.48;49.93;99098.59;5052623;28;8853;-75
2022/04/19 03:58:17;;;;;;;;;50.75;44.25;;;;;6.49;50.06;99105.50;5051031;28;8922;-79
2022/04/19 04:00:46;;;;;;;;;44.00;39.00;;;;;6.47;50.20;99108.94;5084296;28;8844;-75
2022/04/19 04:03:17;;;;;;;;;52.00;43.75;;;;;6.49;50.06;99109.84;5084051;28;8868;-75
2022/04/19 04:05:46;;;;;;;;;54.25;47.50;;;;;6.52;49.87;99110.72;5066841;28;8853;-75
2022/04/19 04:08:16;;;;;;;;;48.00;44.25;;;;;6.56;50.00;99101.22;5034239;28;8852;-76
2022/04/19 04:10:51;;;;;;;;;64.50;51.75;;;;;6.60;49.83;99110.78;5046827;28;9615;-77
2022/04/19 04:13:24;;;;;;;;;50.00;44.75;;;;;6.60;50.11;99116.84;5070875;28;8858;-76
2022/04/19 04:15:53;;;;;;;;;60.25;48.25;;;;;6.66;50.04;99120.34;5087311;28;8867;-76
2022/04/19 04:18:24;;;;;;;;;54.50;48.50;;;;;6.70;49.87;99112.59;5087237;28;8877;-77
2022/04/19 04:20:53;;;;;;;;;64.25;49.25;;;;;6.75;49.90;99115.22;5050346;28;8856;-76
2022/04/19 04:23:21;;;;;;;;;46.25;42.75;;;;;6.79;49.61;99114.41;5050815;28;8849;-77
2022/04/19 04:25:50;;;;;;;;;53.00;46.50;;;;;6.83;49.90;99121.34;5083727;28;8853;-76
2022/04/19 04:28:19;;;;;;;;;62.75;52.75;;;;;6.88;49.66;99119.66;5063311;28;8842;-78
2022/04/19 04:30:50;;;;;;;;;72.67;59.67;;;;;6.94;49.55;99121.44;5104745;28;9604;-78
2022/04/19 04:33:19;;;;;;;;;56.00;48.00;;;;;6.99;49.27;99124.88;5087256;28;8934;-75
2022/04/19 04:35:49;;;;;;;;;49.00;43.75;;;;;7.05;49.09;99118.88;5068910;28;8875;-78
2022/04/19 04:38:18;;;;;;;;;59.50;46.25;;;;;7.03;49.50;99130.13;5050239;28;8877;-76
2022/04/19 04:40:47;;;;;;;;;62.25;52.50;;;;;7.09;49.38;99124.13;5066490;28;8856;-74
2022/04/19 04:43:16;;;;;;;;;64.25;50.75;;;;;7.07;49.09;99122.34;5028454;28;8846;-75
2022/04/19 04:49:35;;;;;;;;;57.25;48.25;;;;;7.15;49.06;99120.69;5026096;28;9004;-77
2022/04/19 04:51:22;;;;;;;;;62.25;49.00;;;;;7.27;49.00;99118.16;5048707;28;8973;-74
2022/04/19 04:53:51;;;;;;;;;54.50;47.00;;;;;7.40;48.48;99119.97;5046065;28;8870;-78
2022/04/19 04:56:25;;;;;;;;;44.50;40.50;;;;;7.50;48.42;99122.59;5013245;28;8897;-76
2022/04/19 04:58:54;;;;;;;;;58.75;46.50;;;;;7.56;48.50;99113.13;5029651;28;8838;-77
2022/04/19 05:01:24;;;;;;;;;51.25;44.00;;;;;7.67;48.41;99117.50;5003012;28;8873;-76
2022/04/19 05:03:53;;;;;;;;;55.00;47.50;;;;;7.69;48.22;99113.19;5008419;28;8944;-76
2022/04/19 05:06:24;;;;;;;;;52.00;45.00;;;;;7.78;47.91;99121.00;4943199;28;8861;-77
2022/04/19 05:08:53;;;;;;;;;50.75;46.00;;;;;7.81;48.16;99121.03;4960111;28;9584;-80
2022/04/19 05:11:22;;;;;;;;;54.00;45.50;;;;;7.85;47.93;99124.50;4991883;28;8896;-75
2022/04/19 05:13:51;;;;;;;;;57.75;48.00;;;;;7.71;48.03;99117.53;4975779;28;8864;-72
2022/04/19 05:16:20;;;;;;;;;50.00;44.00;;;;;7.92;47.83;99126.22;4991441;28;8978;-79
2022/04/19 05:18:50;;;;;;;;;54.50;46.50;;;;;8.02;47.29;99121.97;4990860;28;8869;-74
2022/04/19 05:21:20;;;;;;;;;58.25;49.00;;;;;8.13;47.50;99120.25;5000373;28;8892;-76
2022/04/19 05:23:50;;;;;;;;;54.50;44.00;;;;;8.30;46.98;99125.47;5029229;28;8859;-76
2022/04/19 05:26:28;;;;;;;;;60.25;47.25;;;;;8.42;46.81;99119.47;4994418;28;8946;-78
2022/04/19 05:28:58;;;;;;;;;53.75;44.00;;;;;8.55;46.38;99118.63;5027232;28;8997;-72
2022/04/19 05:31:27;;;;;;;;;53.25;45.75;;;;;8.65;46.02;99120.34;5026984;28;8951;-74
2022/04/19 05:33:56;;;;;;;;;55.50;47.00;;;;;8.78;46.28;99123.81;5050201;28;8842;-73
2022/04/19 05:36:25;;;;;;;;;48.75;43.50;;;;;8.89;45.22;99116.03;5047220;28;8872;-72
2022/04/19 05:38:55;;;;;;;;;60.25;49.25;;;;;8.93;45.46;99121.22;5064874;28;8903;-74
2022/04/19 05:41:25;;;;;;;;;60.75;49.75;;;;;9.11;44.93;99111.63;5069309;28;8870;-76
2022/04/19 05:43:55;;;;;;;;;56.50;45.75;;;;;9.26;45.21;99109.03;5051727;28;8910;-77
2022/04/19 05:46:27;;;;;;;;;54.25;45.25;;;;;9.38;44.62;99112.47;5083454;28;8835;-75
2022/04/19 05:48:56;;;;;;;;;52.75;43.75;;;;;9.33;44.19;99113.31;5049813;28;8833;-76
2022/04/19 05:51:26;;;;;;;;;49.25;44.50;;;;;9.24;44.09;99112.50;5066055;28;8892;-75
2022/04/19 05:53:56;;;;;;;;;46.50;39.25;;;;;9.32;44.90;99113.34;5082912;28;8883;-76
2022/04/19 05:56:25;;;;;;;;;49.25;44.25;;;;;9.23;44.21;99119.44;5072180;28;8877;-76
2022/04/19 05:58:54;;;;;;;;;46.50;41.75;;;;;9.31;45.09;99116.81;5068534;28;8870;-76
2022/04/19 06:01:23;;;;;;;;;49.00;42.75;;;;;9.29;44.01;99119.41;5084561;28;8837;-77
2022/04/19 06:06:40;;;;;;;;;46.75;39.25;;;;;9.68;44.43;99121.94;5080335;28;8852;-77
2022/04/19 06:09:12;;;;;;;;;44.75;38.50;;;;;9.65;44.42;99109.75;5064106;28;8897;-77
2022/04/19 06:11:41;;;;;;;;;54.00;42.25;;;;;9.83;44.01;99114.03;5027020;28;8895;-78
2022/04/19 06:14:12;;;;;;;;;46.75;41.25;;;;;9.95;43.67;99115.72;5064004;28;8900;-77
2022/04/19 06:16:41;;;;;;;;;46.50;41.50;;;;;10.08;43.40;99111.31;5066631;28;8874;-77
2022/04/19 06:19:10;;;;;;;;;46.00;41.50;;;;;10.29;43.44;99113.78;5080979;28;8864;-75
2022/04/19 06:21:40;;;;;;;;;56.75;44.00;;;;;10.20;42.51;99110.38;5047739;28;8849;-77
2022/04/19 06:24:10;;;;;;;;;40.50;37.50;;;;;10.41;42.65;99117.22;4997398;28;9706;-76
2022/04/19 06:26:40;;;;;;;;;46.75;41.25;;;;;10.61;42.60;99114.47;5081058;28;9003;-77
2022/04/19 06:29:18;;;;;;;;;47.50;42.75;;;;;10.75;41.70;99117.81;5073007;28;8920;-75
2022/04/19 06:31:56;;;;;;;;;44.00;39.75;;;;;10.31;41.68;99122.47;5048986;28;8967;-79
2022/04/19 06:34:47;;;;;;;;;43.50;38.25;;;;;10.49;42.43;99108.47;5054793;28;8857;-76
2022/04/19 06:37:22;;;;;;;;;45.50;39.50;;;;;10.73;41.94;99111.75;5013774;28;8927;-78
2022/04/19 06:40:02;;;;;;;;;44.00;40.50;;;;;10.97;42.19;99108.06;5034013;28;8857;-77
2022/04/19 06:42:31;;;;;;;;;42.50;38.25;;;;;11.23;40.82;99102.59;5059708;28;8872;-78
2022/04/19 06:45:32;;;;;;;;;39.50;35.25;;;;;11.45;40.28;99104.97;5023014;28;8964;-76
2022/04/19 06:48:11;;;;;;;;;46.00;39.50;;;;;11.64;40.37;99100.41;5028531;28;8873;-76
2022/04/19 06:50:40;;;;;;;;;46.50;40.75;;;;;11.45;39.38;99105.81;5007367;28;8849;-76
2022/04/19 06:53:13;;;;;;;;;44.50;39.00;;;;;11.74;39.73;99103.75;4986071;28;8896;-77
2022/04/19 06:56:01;;;;;;;;;44.50;38.25;;;;;12.05;38.97;99105.13;4996278;28;8864;-77
2022/04/19 06:58:30;;;;;;;;;38.50;36.00;;;;;12.15;38.21;99105.84;5025621;28;8896;-78
2022/04/19 07:00:59;;;;;;;;;42.25;38.00;;;;;11.88;38.61;99102.69;5024995;28;8864;-74
2022/04/19 07:03:28;;;;;;;;;42.75;37.00;;;;;12.03;39.19;99106.03;5026143;28;8872;-77
2022/04/19 07:06:16;;;;;;;;;32.00;26.75;;;;;12.28;37.69;99103.94;5009751;28;8868;-75
2022/04/19 07:08:45;;;;;;;;;34.00;33.00;;;;;12.54;37.46;99098.31;5041784;28;8912;-75
2022/04/19 07:11:16;;;;;;;;;35.00;33.50;;;;;12.79;37.46;99103.16;5022419;28;8955;-76
2022/04/19 07:13:57;;;;;;;;;30.75;29.25;;;;;13.05;35.97;99097.47;5024046;28;8950;-77
2022/04/19 07:16:44;;;;;;;;;27.50;25.75;;;;;13.24;35.33;99098.00;4997494;28;8927;-77
2022/04/19 07:19:15;;;;;;;;;31.75;31.25;;;;;13.17;34.54;99097.22;5005579;28;8858;-76
2022/04/19 07:27:46;;;;;;;;;24.00;22.60;;;;;13.40;33.85;99096.84;5063803;28;9526;-76
2022/04/19 07:30:17;;;;;;;;;25.25;22.75;;;;;13.46;33.95;99098.50;5066315;28;8861;-75
2022/04/19 07:32:46;;;;;;;;;32.50;29.25;;;;;13.61;33.95;99094.69;5078443;28;9026;-78
2022/04/19 07:35:27;;;;;;;;;25.75;23.50;;;;;13.56;34.21;99101.78;5013474;28;8844;-76
2022/04/19 07:37:56;;;;;;;;;20.20;20.00;;;;;13.60;34.14;99100.81;5025893;28;8982;-76
2022/04/19 07:40:35;;;;;;;;;24.50;24.50;;;;;12.95;33.60;99098.50;5027663;28;8878;-76
2022/04/19 07:43:05;;;;;;;;;25.50;25.00;;;;;12.87;33.33;99111.72;5009858;28;8850;-77
2022/04/19 07:45:35;;;;;;;;;27.25;27.25;;;;;12.10;35.95;99107.69;5044982;28;8862;-77
2022/04/19 07:48:05;;;;;;;;;19.60;19.60;;;;;12.18;35.76;99100.59;5028047;28;9579;-76
2022/04/19 07:50:34;;;;;;;;;23.25;23.25;;;;;12.42;35.40;99098.50;5061584;28;9726;-77
2022/04/19 07:53:03;;;;;;;;;20.00;20.00;;;;;12.73;34.46;99100.63;5044451;28;9591;-76
2022/04/19 07:55:32;;;;;;;;;22.20;21.40;;;;;13.04;34.73;99095.72;5027795;28;8870;-75
2022/04/19 07:58:01;;;;;;;;;23.00;18.00;;;;;13.11;32.27;99093.88;5027803;28;8854;-75
2022/04/19 08:00:32;;;;;;;;;20.80;20.40;;;;;12.16;33.17;99091.06;5012031;28;8849;-76
2022/04/19 08:03:01;;;;;;;;;17.80;16.20;;;;;11.55;34.39;99087.44;5027973;28;8865;-77
2022/04/19 08:05:30;;;;;;;;;16.20;13.80;;;;;11.65;34.71;99094.31;5028119;28;8959;-76
2022/04/19 08:07:59;;;;;;;;;14.00;14.00;;;;;11.71;32.50;99089.00;5067196;28;8843;-76
2022/04/19 08:10:28;;;;;;;;;21.25;21.25;;;;;11.21;34.26;99101.75;5048964;28;8842;-76
2022/04/19 08:12:57;;;;;;;;;16.60;15.20;;;;;10.76;34.10;99095.22;5050153;28;8868;-75
2022/04/19 08:15:26;;;;;;;;;15.80;14.80;;;;;10.81;35.30;99083.00;5080454;28;8891;-76
2022/04/19 08:17:57;;;;;;;;;18.75;18.75;;;;;11.23;35.10;99092.16;5044940;28;8872;-75
2022/04/19 08:20:26;;;;;;;;;18.25;17.75;;;;;11.72;34.63;99095.97;5032644;28;8884;-75
2022/04/19 08:22:54;;;;;;;;;10.20;9.80;;;;;11.89;33.33;99093.13;5049592;28;8874;-75
2022/04/19 08:25:26;;;;;;;;;12.60;12.60;;;;;11.71;32.70;99096.84;5082685;28;8861;-78
2022/04/19 08:27:55;;;;;;;;;11.80;11.20;;;;;11.11;32.54;99097.50;5066031;28;9035;-76
2022/04/19 08:30:24;;;;;;;;;13.40;11.20;;;;;10.50;33.29;99096.28;5064387;28;8960;-79
2022/04/19 08:32:53;;;;;;;;;12.80;12.80;;;;;10.58;33.77;99102.31;5019057;28;8854;-77
2022/04/19 08:35:24;;;;;;;;;13.20;12.80;;;;;10.10;35.45;99100.00;5071185;28;8957;-76
2022/04/19 08:37:53;;;;;;;;;19.80;14.80;;;;;9.92;36.91;99106.19;5053011;28;8850;-76
2022/04/19 08:40:22;;;;;;;;;18.75;18.75;;;;;10.23;35.54;99111.22;5085668;28;8843;-75
2022/04/19 08:42:57;;;;;;;;;13.80;12.80;;;;;10.60;36.31;99105.75;5068362;28;8869;-78
2022/04/19 08:45:26;;;;;;;;;15.80;15.80;;;;;10.84;34.87;99099.47;5083938;28;8865;-75
2022/04/19 08:47:57;;;;;;;;;17.80;16.60;;;;;10.88;34.64;99102.94;5082901;28;8866;-77
2022/04/19 08:50:28;;;;;;;;;13.00;12.00;;;;;10.22;35.77;99103.41;5069134;28;8855;-76
2022/04/19 08:58:30;;;;;;;;;10.80;10.20;;;;;9.86;33.65;99100.13;5070995;28;8844;-76
2022/04/19 09:00:58;;;;;;;;;14.00;12.20;;;;;9.64;34.83;99104.56;5066195;28;8849;-76
2022/04/19 09:03:27;;;;;;;;;15.40;11.80;;;;;9.90;34.86;99101.84;5051999;28;8898;-76
2022/04/19 09:05:57;;;;;;;;;17.20;15.20;;;;;10.17;35.60;99095.63;5065594;28;8873;-76
2022/04/19 09:08:26;;;;;;;;;14.00;13.80;;;;;10.12;34.98;99093.03;5050629;28;8837;-76
2022/04/19 09:11:05;;;;;;;;;12.20;12.20;;;;;10.07;33.92;99086.97;5031906;28;8873;-76
2022/04/19 09:13:34;;;;;;;;;9.20;8.00;;;;;10.18;33.62;99091.28;5084889;28;8884;-76
2022/04/19 09:16:06;;;;;;;;;10.40;10.40;;;;;10.25;33.09;99085.16;5049033;28;8883;-78
2022/04/19 09:18:37;;;;;;;;;11.00;9.40;;;;;10.32;33.13;99085.13;5051171;28;9432;-78
2022/04/19 09:21:07;;;;;;;;;13.40;12.80;;;;;10.75;33.03;99080.44;5079343;28;8868;-75
2022/04/19 09:23:36;;;;;;;;;13.20;11.80;;;;;10.55;33.55;99084.09;5052161;28;8895;-77
2022/04/19 09:26:08;;;;;;;;;12.00;12.00;;;;;11.08;33.73;99082.75;5046434;28;8873;-76
2022/04/19 09:28:38;;;;;;;;;13.00;13.00;;;;;10.87;31.69;99078.59;5056669;28;8862;-78
2022/04/19 09:31:11;;;;;;;;;14.60;14.60;;;;;10.67;32.45;99081.38;5016604;28;8855;-76
2022/04/19 09:33:40;;;;;;;;;19.25;16.75;;;;;11.07;33.40;99067.94;4959442;28;9094;-77
2022/04/19 09:36:10;;;;;;;;;12.20;10.80;;;;;11.47;33.79;99067.53;5023265;28;9664;-76
2022/04/19 09:38:44;;;;;;;;;14.60;13.80;;;;;11.53;32.45;99066.59;4959295;28;8847;-78
2022/04/19 09:41:16;;;;;;;;;11.60;11.60;;;;;11.76;32.00;99053.25;5020668;28;8963;-79
2022/04/19 09:44:06;;;;;;;;;15.20;13.00;;;;;11.38;32.10;99056.31;5010602;28;8868;-77
2022/04/19 09:46:36;;;;;;;;;23.25;19.50;;;;;10.96;33.20;99066.34;5027565;28;8933;-75
2022/04/19 09:49:05;;;;;;;;;15.00;14.00;;;;;11.31;32.88;99058.16;5043849;28;8856;-77
2022/04/19 09:51:37;;;;;;;;;20.20;15.80;;;;;11.78;32.48;99059.31;5020698;28;8972;-76
2022/04/19 09:54:06;;;;;;;;;12.80;10.80;;;;;11.51;31.74;99052.66;5027157;28;8895;-75
2022/04/19 09:56:36;;;;;;;;;15.80;13.40;;;;;10.89;31.71;99060.34;5026848;28;8852;-77
2022/04/19 09:59:17;;;;;;;;;13.40;12.60;;;;;10.82;31.99;99054.28;5023817;28;8860;-77
2022/04/19 10:10:09;;;;;;;;;13.20;12.00;;;;;11.28;32.07;99042.50;5058149;28;8964;-76
2022/04/19 10:12:39;;;;;;;;;12.40;11.00;;;;;11.26;31.17;99049.50;5045527;28;8869;-78
2022/04/19 10:15:08;;;;;;;;;10.20;9.00;;;;;11.09;31.84;99039.25;5062727;28;9114;-78
2022/04/19 10:17:38;;;;;;;;;8.00;8.00;;;;;11.01;31.81;99030.63;5033757;28;8854;-75
2022/04/19 10:20:07;;;;;;;;;8.00;8.00;;;;;10.61;32.12;99034.50;5085258;28;8846;-78
2022/04/19 10:22:46;;;;;;;;;13.00;13.00;;;;;11.09;32.10;99040.09;5056975;28;8888;-76
2022/04/19 10:25:15;;;;;;;;;10.80;10.80;;;;;10.83;31.73;99039.50;5067157;28;8866;-76
2022/04/19 10:27:44;;;;;;;;;11.00;11.00;;;;;10.91;31.82;99038.56;5065313;28;8833;-77
2022/04/19 10:30:19;;;;;;;;;14.80;12.00;;;;;11.07;30.70;99030.56;5081522;28;8942;-77
2022/04/19 10:32:47;;;;;;;;;13.80;12.20;;;;;11.46;31.00;99026.63;5047653;28;8945;-76
2022/04/19 10:35:16;;;;;;;;;13.20;12.40;;;;;11.51;30.72;99022.22;5062881;28;8866;-79
2022/04/19 10:37:49;;;;;;;;;13.80;11.20;;;;;11.82;29.75;99024.41;5061900;28;8861;-77
2022/04/19 10:40:22;;;;;;;;;10.80;9.60;;;;;12.20;29.96;99015.16;5080883;28;8852;-77
2022/04/19 10:43:14;;;;;;;;;12.00;12.00;;;;;12.78;30.21;99010.72;5037457;28;8907;-76
2022/04/19 10:45:46;;;;;;;;;15.60;14.60;;;;;12.95;28.68;98999.94;5054706;28;8803;-76
2022/04/19 10:48:16;;;;;;;;;11.60;11.40;;;;;12.68;28.84;99010.03;5033210;28;8878;-75
2022/04/19 10:50:50;;;;;;;;;11.20;11.20;;;;;12.37;28.87;99001.81;5066620;28;8850;-76
2022/04/19 10:53:33;;;;;;;;;12.00;11.40;;;;;12.76;28.43;99009.88;5066415;28;8968;-76
2022/04/19 10:56:08;;;;;;;;;12.00;12.00;;;;;12.84;27.89;99005.38;5063702;28;8872;-76
2022/04/19 10:58:41;;;;;;;;;15.00;12.20;;;;;12.97;27.77;99002.53;5029809;28;8861;-77
2022/04/19 11:01:29;;;;;;;;;9.80;9.60;;;;;13.39;26.92;98997.34;5013663;28;8865;-76
2022/04/19 11:03:58;;;;;;;;;11.80;11.40;;;;;13.67;28.29;98989.78;5048165;28;9708;-75
2022/04/19 11:06:32;;;;;;;;;15.60;14.60;;;;;13.82;25.55;98992.03;5048270;28;8841;-76
2022/04/19 11:09:19;;;;;;;;;11.40;11.00;;;;;13.41;25.89;98988.56;5045452;28;8947;-76
2022/04/19 11:11:50;;;;;;;;;9.00;8.60;;;;;13.45;26.35;98991.97;4993942;28;8974;-76
2022/04/19 11:14:37;;;;;;;;;12.20;10.80;;;;;14.03;26.61;98993.31;5025474;28;8881;-76
2022/04/19 11:17:27;;;;;;;;;11.60;11.20;;;;;14.64;26.29;98968.25;4996775;28;8842;-77
2022/04/19 11:20:14;;;;;;;;;10.60;9.80;;;;;15.25;25.49;98966.53;5029412;28;8884;-77
2022/04/19 11:22:49;;;;;;;;;11.80;11.80;;;;;14.68;25.18;98978.59;5045515;28;8952;-76
2022/04/19 11:25:37;;;;;;;;;16.20;13.60;;;;;14.70;25.00;98976.78;4996724;28;8873;-78
2022/04/19 11:28:27;;;;;;;;;13.40;11.80;;;;;14.55;25.24;98975.41;5046310;28;8858;-75
2022/04/19 11:31:14;;;;;;;;;13.60;13.40;;;;;14.15;25.85;98976.41;5045961;28;8910;-77
2022/04/19 11:33:43;;;;;;;;;13.80;12.20;;;;;14.82;26.16;98973.00;5013211;28;8948;-76
2022/04/19 11:36:15;;;;;;;;;10.80;10.80;;;;;15.19;24.77;98962.31;4998347;28;8958;-77
2022/04/19 11:38:46;;;;;;;;;14.20;14.20;;;;;15.46;24.36;98966.81;5047139;28;8945;-76
2022/04/19 11:46:58;;;;;;;;;9.20;9.20;;;;;17.00;23.06;98957.41;5026100;28;8840;-76
2022/04/19 11:49:28;;;;;;;;;9.20;9.20;;;;;17.45;21.74;98946.09;5031644;28;8863;-77
2022/04/19 11:51:58;;;;;;;;;11.80;10.80;;;;;16.96;22.24;98945.28;5048945;28;8857;-77
2022/04/19 11:54:28;;;;;;;;;13.20;13.20;;;;;17.49;22.52;98931.88;5052356;28;8972;-77
2022/04/19 11:56:59;;;;;;;;;12.60;12.60;;;;;17.97;21.52;98923.88;5053416;28;8967;-75
2022/04/19 11:59:30;;;;;;;;;9.40;9.20;;;;;18.23;21.03;98931.56;5048336;28;8845;-77
2022/04/19 12:01:59;;;;;;;;;10.20;9.20;;;;;18.53;20.30;98914.50;5048278;28;8944;-77
2022/04/19 12:04:28;;;;;;;;;82.00;74.25;;;;;18.74;20.62;98910.06;5046821;28;9595;-76
2022/04/19 12:07:01;;;;;;;;;12.80;10.80;;;;;19.23;20.39;98918.44;5051141;28;10089;-77
2022/04/19 12:09:32;;;;;;;;;10.40;10.40;;;;;19.63;18.99;98912.13;5052274;28;8861;-77
2022/04/19 12:12:08;;;;;;;;;12.60;11.20;;;;;19.28;19.87;98914.66;5051965;28;8943;-76
2022/04/19 12:14:37;;;;;;;;;10.80;10.00;;;;;19.79;19.25;98906.13;5050815;28;8860;-78
2022/04/19 12:17:07;;;;;;;;;11.20;10.20;;;;;19.84;18.67;98902.31;5054449;28;8866;-78
2022/04/19 12:19:39;;;;;;;;;7.80;6.60;;;;;20.14;19.17;98909.69;5072056;28;8843;-78
2022/04/19 12:22:22;;;;;;;;;14.00;13.20;;;;;20.43;19.37;98902.06;5071910;28;8850;-77
2022/04/19 12:24:54;;;;;;;;;10.40;10.40;;;;;20.74;18.80;98893.41;5053447;28;8858;-78
2022/04/19 12:27:28;;;;;;;;;9.60;9.60;;;;;20.68;17.84;98901.69;5103660;28;8866;-79
2022/04/19 12:30:08;;;;;;;;;16.40;15.80;;;;;20.27;18.90;98893.19;5104120;28;8834;-80